Aérodrome :
LOGIN :

S'inscrire | Disclaimer

   EN    FR    IT 

 










Légende :    VFR   VFR Marginal   IFR   IFR Intensif   IFR Très Intensif
Visi : 
Plafond : 
>= 8 km
>= 3000ft
5 à 8 km
1000 à 3000 ft
1500m à 5 km
500 à 1000 ft
800 à 1500m
200 à 500 ft
< 800m
< 200 ft
Symboles :   Orages  Brouillard  Fortes neiges  Fortes précipitations  Vent > 20 kt
SIGMETs :   Divers  Orages  Givrage  Turbulence  Onde Orograph.  Cendres Volcan.






- Altitude de l'aérodrome : 622 ft
- Code IATA : SVO


UUEE - Sheremetyevo International

DERNIER METAR :
  • 050930Z 30007MPS 270V330 9999 SCT050CB 05/M10 Q1020 R24L/CLRD62 R24R/CLRD62 NOSIG

METARs EXPIRÉS :
  • 050900Z 30007G13MPS 260V330 8000 -SHSN BKN038CB 05/M08 Q1020 R24R/CLRD62 NOSIG
  • 050830Z 30006MPS 260V320 9999 SCT048CB 04/M08 Q1021 R24R/CLRD62 NOSIG
  • 050800Z 28005MPS 250V320 9999 SCT041 05/M06 Q1021 R24L/CLRD62 R24R/CLRD62 NOSIG
  • 050730Z 30004MPS 250V330 CAVOK 03/M05 Q1021 R24L/CLRD62 R24R/CLRD62 NOSIG
  • 050700Z 30005MPS 9999 -SHSN SCT050CB 02/M04 Q1021 R24L/CLRD62 R24R/CLRD62 NOSIG

TAF TAF UUEE
Valide du 05 à 09h jusqu'au 06 à 09h UTC


050759Z 0509/0609 31006G11MPS 9999 BKN020 TX05/0510Z TNM04/0603Z
TEMPO 0509/0516 32009G16MPS 2100 -SHSNRA BKN016CB



MET'MAP, la Météo Aéronautique d'un coup d'oeil ! - Copyright ORBIFLY Décembre 2007 - Disclaimer

ORBIFLY MET'MAP TEAM :

Programmation & Développement : Alexandra Zaïnal
Sur une idée originale de : Baudouin d'Aumeries
Assistance à la programmation : Marc-Olivier Méhu
Soutien technique & logistique : Manuel Goepfert

Contact : metmap@orbifly.com




SOURCES & CREDITS :

   NOAA